sensor_id;sensor_type;location;lat;lon;timestamp;P1;durP1;ratioP1;P2;durP2;ratioP2
67272;SDS011;54190;49.770;9.250;2022-09-30T00:01:30;11.90;;;4.47;;
67272;SDS011;54190;49.770;9.250;2022-09-30T00:03:57;16.10;;;4.87;;
67272;SDS011;54190;49.770;9.250;2022-09-30T00:06:24;14.23;;;4.83;;
67272;SDS011;54190;49.770;9.250;2022-09-30T00:08:50;23.83;;;5.93;;
67272;SDS011;54190;49.770;9.250;2022-09-30T00:11:35;18.97;;;5.33;;
67272;SDS011;54190;49.770;9.250;2022-09-30T00:14:03;17.13;;;5.10;;
67272;SDS011;54190;49.770;9.250;2022-09-30T00:16:31;20.17;;;4.73;;
67272;SDS011;54190;49.770;9.250;2022-09-30T00:18:58;44.87;;;5.47;;
67272;SDS011;54190;49.770;9.250;2022-09-30T00:21:25;10.67;;;4.93;;
67272;SDS011;54190;49.770;9.250;2022-09-30T00:23:54;56.00;;;6.73;;
67272;SDS011;54190;49.770;9.250;2022-09-30T00:26:21;6.57;;;4.80;;
67272;SDS011;54190;49.770;9.250;2022-09-30T00:28:57;52.27;;;6.40;;
67272;SDS011;54190;49.770;9.250;2022-09-30T00:31:24;32.10;;;5.47;;
67272;SDS011;54190;49.770;9.250;2022-09-30T00:33:52;33.30;;;5.53;;
67272;SDS011;54190;49.770;9.250;2022-09-30T00:36:42;37.80;;;6.03;;
67272;SDS011;54190;49.770;9.250;2022-09-30T00:39:14;10.83;;;5.20;;
67272;SDS011;54190;49.770;9.250;2022-09-30T00:41:44;7.90;;;5.60;;
67272;SDS011;54190;49.770;9.250;2022-09-30T00:50:17;6.90;;;4.70;;
67272;SDS011;54190;49.770;9.250;2022-09-30T00:53:02;7.57;;;5.03;;
67272;SDS011;54190;49.770;9.250;2022-09-30T00:58:05;8.73;;;4.37;;
67272;SDS011;54190;49.770;9.250;2022-09-30T01:00:34;40.80;;;6.27;;
67272;SDS011;54190;49.770;9.250;2022-09-30T01:03:01;20.53;;;5.47;;
67272;SDS011;54190;49.770;9.250;2022-09-30T01:05:28;31.40;;;6.20;;
67272;SDS011;54190;49.770;9.250;2022-09-30T01:07:56;27.37;;;6.00;;
67272;SDS011;54190;49.770;9.250;2022-09-30T01:10:25;15.60;;;5.03;;
67272;SDS011;54190;49.770;9.250;2022-09-30T01:12:51;45.97;;;5.90;;
67272;SDS011;54190;49.770;9.250;2022-09-30T01:15:18;70.57;;;7.20;;
67272;SDS011;54190;49.770;9.250;2022-09-30T01:18:06;34.43;;;5.37;;
67272;SDS011;54190;49.770;9.250;2022-09-30T01:20:53;14.40;;;5.27;;
67272;SDS011;54190;49.770;9.250;2022-09-30T01:32:22;56.47;;;6.77;;
67272;SDS011;54190;49.770;9.250;2022-09-30T01:42:50;32.07;;;5.67;;
67272;SDS011;54190;49.770;9.250;2022-09-30T01:46:01;16.10;;;6.63;;
67272;SDS011;54190;49.770;9.250;2022-09-30T01:51:40;15.90;;;5.00;;
67272;SDS011;54190;49.770;9.250;2022-09-30T01:54:37;8.90;;;4.30;;
67272;SDS011;54190;49.770;9.250;2022-09-30T01:57:10;11.53;;;5.63;;
67272;SDS011;54190;49.770;9.250;2022-09-30T02:02:23;24.10;;;6.07;;
67272;SDS011;54190;49.770;9.250;2022-09-30T02:04:52;9.57;;;4.97;;
67272;SDS011;54190;49.770;9.250;2022-09-30T02:07:29;10.50;;;5.57;;
67272;SDS011;54190;49.770;9.250;2022-09-30T02:10:14;55.60;;;6.70;;
67272;SDS011;54190;49.770;9.250;2022-09-30T02:12:46;9.30;;;5.73;;
67272;SDS011;54190;49.770;9.250;2022-09-30T02:15:18;11.80;;;6.67;;
67272;SDS011;54190;49.770;9.250;2022-09-30T02:17:49;16.27;;;6.33;;
67272;SDS011;54190;49.770;9.250;2022-09-30T02:20:25;9.17;;;5.67;;
67272;SDS011;54190;49.770;9.250;2022-09-30T02:22:59;10.47;;;5.80;;
67272;SDS011;54190;49.770;9.250;2022-09-30T02:25:54;9.77;;;6.90;;
67272;SDS011;54190;49.770;9.250;2022-09-30T02:28:23;8.40;;;5.70;;
67272;SDS011;54190;49.770;9.250;2022-09-30T02:30:52;11.30;;;6.20;;
67272;SDS011;54190;49.770;9.250;2022-09-30T02:33:24;13.27;;;6.63;;
67272;SDS011;54190;49.770;9.250;2022-09-30T02:35:58;24.23;;;6.30;;
67272;SDS011;54190;49.770;9.250;2022-09-30T02:38:31;11.90;;;5.80;;
67272;SDS011;54190;49.770;9.250;2022-09-30T02:41:22;21.90;;;6.60;;
67272;SDS011;54190;49.770;9.250;2022-09-30T02:43:50;8.87;;;5.40;;
67272;SDS011;54190;49.770;9.250;2022-09-30T02:48:54;10.60;;;5.37;;
67272;SDS011;54190;49.770;9.250;2022-09-30T02:59:50;8.03;;;5.37;;
67272;SDS011;54190;49.770;9.250;2022-09-30T03:02:17;8.07;;;5.40;;
67272;SDS011;54190;49.770;9.250;2022-09-30T03:04:44;10.53;;;5.30;;
67272;SDS011;54190;49.770;9.250;2022-09-30T03:07:11;7.73;;;5.13;;
67272;SDS011;54190;49.770;9.250;2022-09-30T03:09:38;7.60;;;4.90;;
67272;SDS011;54190;49.770;9.250;2022-09-30T03:12:10;11.83;;;5.50;;
67272;SDS011;54190;49.770;9.250;2022-09-30T03:15:12;7.80;;;5.37;;
67272;SDS011;54190;49.770;9.250;2022-09-30T03:20:26;7.97;;;5.37;;
67272;SDS011;54190;49.770;9.250;2022-09-30T03:29:11;8.50;;;5.40;;
67272;SDS011;54190;49.770;9.250;2022-09-30T03:31:44;9.17;;;6.00;;
67272;SDS011;54190;49.770;9.250;2022-09-30T03:34:30;9.60;;;5.13;;
67272;SDS011;54190;49.770;9.250;2022-09-30T03:37:20;7.80;;;4.90;;
67272;SDS011;54190;49.770;9.250;2022-09-30T03:40:00;8.57;;;5.70;;
67272;SDS011;54190;49.770;9.250;2022-09-30T03:42:46;8.77;;;5.10;;
67272;SDS011;54190;49.770;9.250;2022-09-30T03:45:44;9.47;;;6.17;;
67272;SDS011;54190;49.770;9.250;2022-09-30T03:48:31;8.70;;;6.20;;
67272;SDS011;54190;49.770;9.250;2022-09-30T03:50:58;8.10;;;5.57;;
67272;SDS011;54190;49.770;9.250;2022-09-30T03:53:25;9.00;;;5.63;;
67272;SDS011;54190;49.770;9.250;2022-09-30T03:55:52;11.10;;;5.43;;
67272;SDS011;54190;49.770;9.250;2022-09-30T03:58:19;8.03;;;5.83;;
67272;SDS011;54190;49.770;9.250;2022-09-30T04:00:51;7.23;;;5.23;;
67272;SDS011;54190;49.770;9.250;2022-09-30T04:03:19;10.20;;;5.93;;
67272;SDS011;54190;49.770;9.250;2022-09-30T04:05:46;7.83;;;5.40;;
67272;SDS011;54190;49.770;9.250;2022-09-30T04:08:13;7.60;;;5.40;;
67272;SDS011;54190;49.770;9.250;2022-09-30T04:10:39;8.47;;;5.53;;
67272;SDS011;54190;49.770;9.250;2022-09-30T04:13:06;8.87;;;6.20;;
67272;SDS011;54190;49.770;9.250;2022-09-30T04:15:33;10.03;;;6.40;;
67272;SDS011;54190;49.770;9.250;2022-09-30T04:18:00;12.90;;;5.93;;
67272;SDS011;54190;49.770;9.250;2022-09-30T04:20:26;13.93;;;6.20;;
67272;SDS011;54190;49.770;9.250;2022-09-30T04:22:56;13.73;;;5.60;;
67272;SDS011;54190;49.770;9.250;2022-09-30T04:28:27;7.13;;;5.23;;
67272;SDS011;54190;49.770;9.250;2022-09-30T04:30:53;19.60;;;5.53;;
67272;SDS011;54190;49.770;9.250;2022-09-30T04:33:18;20.90;;;6.23;;
67272;SDS011;54190;49.770;9.250;2022-09-30T04:35:44;21.87;;;6.57;;
67272;SDS011;54190;49.770;9.250;2022-09-30T04:38:10;21.70;;;5.80;;
67272;SDS011;54190;49.770;9.250;2022-09-30T04:40:36;44.83;;;6.50;;
67272;SDS011;54190;49.770;9.250;2022-09-30T04:43:03;28.57;;;6.30;;
67272;SDS011;54190;49.770;9.250;2022-09-30T04:45:30;80.30;;;7.97;;
67272;SDS011;54190;49.770;9.250;2022-09-30T04:47:55;75.17;;;8.43;;
67272;SDS011;54190;49.770;9.250;2022-09-30T04:50:21;15.20;;;5.70;;
67272;SDS011;54190;49.770;9.250;2022-09-30T04:52:48;57.00;;;7.87;;
67272;SDS011;54190;49.770;9.250;2022-09-30T04:55:14;117.43;;;9.47;;
67272;SDS011;54190;49.770;9.250;2022-09-30T04:57:42;23.57;;;6.50;;
67272;SDS011;54190;49.770;9.250;2022-09-30T05:00:09;6.93;;;5.17;;
67272;SDS011;54190;49.770;9.250;2022-09-30T05:02:35;21.77;;;5.47;;
67272;SDS011;54190;49.770;9.250;2022-09-30T05:05:01;15.10;;;5.90;;
67272;SDS011;54190;49.770;9.250;2022-09-30T05:07:29;8.63;;;5.77;;
67272;SDS011;54190;49.770;9.250;2022-09-30T05:09:56;29.43;;;7.00;;
67272;SDS011;54190;49.770;9.250;2022-09-30T05:12:22;7.53;;;5.43;;
67272;SDS011;54190;49.770;9.250;2022-09-30T05:14:47;22.43;;;5.70;;
67272;SDS011;54190;49.770;9.250;2022-09-30T05:17:13;9.90;;;5.60;;
67272;SDS011;54190;49.770;9.250;2022-09-30T05:19:39;30.63;;;6.23;;
67272;SDS011;54190;49.770;9.250;2022-09-30T05:22:05;6.63;;;4.63;;
67272;SDS011;54190;49.770;9.250;2022-09-30T05:24:30;7.10;;;5.17;;
67272;SDS011;54190;49.770;9.250;2022-09-30T05:26:56;33.47;;;6.50;;
67272;SDS011;54190;49.770;9.250;2022-09-30T05:29:22;19.83;;;5.30;;
67272;SDS011;54190;49.770;9.250;2022-09-30T05:31:48;28.77;;;6.37;;
67272;SDS011;54190;49.770;9.250;2022-09-30T05:34:13;6.03;;;4.47;;
67272;SDS011;54190;49.770;9.250;2022-09-30T05:36:41;11.23;;;4.63;;
67272;SDS011;54190;49.770;9.250;2022-09-30T05:39:15;6.73;;;4.80;;
67272;SDS011;54190;49.770;9.250;2022-09-30T05:41:41;18.67;;;5.67;;
67272;SDS011;54190;49.770;9.250;2022-09-30T05:44:07;24.03;;;5.23;;
67272;SDS011;54190;49.770;9.250;2022-09-30T05:46:34;9.47;;;4.83;;
67272;SDS011;54190;49.770;9.250;2022-09-30T05:48:59;78.10;;;7.77;;
67272;SDS011;54190;49.770;9.250;2022-09-30T05:51:25;9.37;;;4.93;;
67272;SDS011;54190;49.770;9.250;2022-09-30T05:53:51;4.70;;;4.00;;
67272;SDS011;54190;49.770;9.250;2022-09-30T05:56:17;5.00;;;4.10;;
67272;SDS011;54190;49.770;9.250;2022-09-30T05:58:43;4.80;;;3.70;;
67272;SDS011;54190;49.770;9.250;2022-09-30T06:01:12;10.53;;;4.47;;
67272;SDS011;54190;49.770;9.250;2022-09-30T06:03:39;6.33;;;3.90;;
67272;SDS011;54190;49.770;9.250;2022-09-30T06:06:06;8.60;;;4.40;;
67272;SDS011;54190;49.770;9.250;2022-09-30T06:08:32;6.73;;;4.40;;
67272;SDS011;54190;49.770;9.250;2022-09-30T06:10:58;24.10;;;5.40;;
67272;SDS011;54190;49.770;9.250;2022-09-30T06:13:24;32.27;;;5.73;;
67272;SDS011;54190;49.770;9.250;2022-09-30T06:15:58;23.27;;;5.30;;
67272;SDS011;54190;49.770;9.250;2022-09-30T06:18:25;31.33;;;5.67;;
67272;SDS011;54190;49.770;9.250;2022-09-30T06:20:51;15.90;;;4.93;;
67272;SDS011;54190;49.770;9.250;2022-09-30T06:23:20;9.53;;;5.17;;
67272;SDS011;54190;49.770;9.250;2022-09-30T06:25:49;16.47;;;5.20;;
67272;SDS011;54190;49.770;9.250;2022-09-30T06:28:16;5.10;;;4.00;;
67272;SDS011;54190;49.770;9.250;2022-09-30T06:30:42;10.03;;;4.80;;
67272;SDS011;54190;49.770;9.250;2022-09-30T06:33:08;6.87;;;4.73;;
67272;SDS011;54190;49.770;9.250;2022-09-30T06:35:34;9.83;;;4.00;;
67272;SDS011;54190;49.770;9.250;2022-09-30T06:38:01;6.33;;;4.00;;
67272;SDS011;54190;49.770;9.250;2022-09-30T06:40:27;11.70;;;4.83;;
67272;SDS011;54190;49.770;9.250;2022-09-30T06:43:01;8.10;;;4.60;;
67272;SDS011;54190;49.770;9.250;2022-09-30T06:45:28;14.10;;;4.00;;
67272;SDS011;54190;49.770;9.250;2022-09-30T06:48:00;5.13;;;3.97;;
67272;SDS011;54190;49.770;9.250;2022-09-30T06:50:57;6.20;;;4.10;;
67272;SDS011;54190;49.770;9.250;2022-09-30T06:53:23;9.33;;;4.77;;
67272;SDS011;54190;49.770;9.250;2022-09-30T06:55:53;7.20;;;4.47;;
67272;SDS011;54190;49.770;9.250;2022-09-30T06:58:22;6.40;;;4.70;;
67272;SDS011;54190;49.770;9.250;2022-09-30T07:00:55;7.00;;;4.80;;
67272;SDS011;54190;49.770;9.250;2022-09-30T07:03:26;13.07;;;4.87;;
67272;SDS011;54190;49.770;9.250;2022-09-30T07:05:54;9.20;;;4.43;;
67272;SDS011;54190;49.770;9.250;2022-09-30T07:08:23;14.90;;;5.33;;
67272;SDS011;54190;49.770;9.250;2022-09-30T07:10:50;7.37;;;4.97;;
67272;SDS011;54190;49.770;9.250;2022-09-30T07:13:17;16.03;;;6.37;;
67272;SDS011;54190;49.770;9.250;2022-09-30T07:15:43;12.57;;;5.87;;
67272;SDS011;54190;49.770;9.250;2022-09-30T07:18:08;19.60;;;6.37;;
67272;SDS011;54190;49.770;9.250;2022-09-30T07:20:34;8.37;;;6.13;;
67272;SDS011;54190;49.770;9.250;2022-09-30T07:23:00;35.60;;;5.93;;
67272;SDS011;54190;49.770;9.250;2022-09-30T07:25:26;31.47;;;6.33;;
67272;SDS011;54190;49.770;9.250;2022-09-30T07:27:52;80.67;;;8.00;;
67272;SDS011;54190;49.770;9.250;2022-09-30T07:30:19;41.97;;;7.03;;
67272;SDS011;54190;49.770;9.250;2022-09-30T07:32:44;23.27;;;6.50;;
67272;SDS011;54190;49.770;9.250;2022-09-30T07:35:10;23.57;;;6.37;;
67272;SDS011;54190;49.770;9.250;2022-09-30T07:37:37;20.53;;;6.10;;
67272;SDS011;54190;49.770;9.250;2022-09-30T07:40:03;35.03;;;6.80;;
67272;SDS011;54190;49.770;9.250;2022-09-30T07:42:31;31.97;;;7.10;;
67272;SDS011;54190;49.770;9.250;2022-09-30T07:45:00;68.67;;;8.30;;
67272;SDS011;54190;49.770;9.250;2022-09-30T07:47:26;61.37;;;8.60;;
67272;SDS011;54190;49.770;9.250;2022-09-30T07:49:52;33.57;;;12.43;;
67272;SDS011;54190;49.770;9.250;2022-09-30T07:52:17;38.30;;;9.80;;
67272;SDS011;54190;49.770;9.250;2022-09-30T07:54:43;45.07;;;14.10;;
67272;SDS011;54190;49.770;9.250;2022-09-30T07:57:09;24.10;;;9.97;;
67272;SDS011;54190;49.770;9.250;2022-09-30T07:59:36;29.20;;;13.70;;
67272;SDS011;54190;49.770;9.250;2022-09-30T08:02:05;25.30;;;12.50;;
67272;SDS011;54190;49.770;9.250;2022-09-30T08:04:32;15.57;;;10.73;;
67272;SDS011;54190;49.770;9.250;2022-09-30T08:07:01;12.63;;;7.80;;
67272;SDS011;54190;49.770;9.250;2022-09-30T08:09:29;13.03;;;9.10;;
67272;SDS011;54190;49.770;9.250;2022-09-30T08:11:55;12.93;;;8.73;;
67272;SDS011;54190;49.770;9.250;2022-09-30T08:14:21;18.30;;;7.93;;
67272;SDS011;54190;49.770;9.250;2022-09-30T08:16:49;10.50;;;7.80;;
67272;SDS011;54190;49.770;9.250;2022-09-30T08:19:19;15.80;;;8.90;;
67272;SDS011;54190;49.770;9.250;2022-09-30T08:21:46;16.00;;;9.63;;
67272;SDS011;54190;49.770;9.250;2022-09-30T08:24:13;12.57;;;9.47;;
67272;SDS011;54190;49.770;9.250;2022-09-30T08:26:39;15.80;;;10.67;;
67272;SDS011;54190;49.770;9.250;2022-09-30T08:29:05;20.90;;;10.60;;
67272;SDS011;54190;49.770;9.250;2022-09-30T08:31:31;23.47;;;10.20;;
67272;SDS011;54190;49.770;9.250;2022-09-30T08:33:57;15.67;;;10.10;;
67272;SDS011;54190;49.770;9.250;2022-09-30T08:36:24;16.57;;;9.93;;
67272;SDS011;54190;49.770;9.250;2022-09-30T08:38:51;15.77;;;8.90;;
67272;SDS011;54190;49.770;9.250;2022-09-30T08:46:47;12.10;;;7.90;;
67272;SDS011;54190;49.770;9.250;2022-09-30T08:52:28;10.93;;;8.63;;
67272;SDS011;54190;49.770;9.250;2022-09-30T08:54:58;11.17;;;8.33;;
67272;SDS011;54190;49.770;9.250;2022-09-30T08:57:26;13.23;;;9.07;;
67272;SDS011;54190;49.770;9.250;2022-09-30T08:59:58;10.00;;;7.60;;
67272;SDS011;54190;49.770;9.250;2022-09-30T09:02:30;11.60;;;8.27;;
67272;SDS011;54190;49.770;9.250;2022-09-30T09:05:02;10.83;;;8.43;;
67272;SDS011;54190;49.770;9.250;2022-09-30T09:10:05;11.23;;;8.87;;
67272;SDS011;54190;49.770;9.250;2022-09-30T09:21:26;11.00;;;8.23;;
67272;SDS011;54190;49.770;9.250;2022-09-30T09:24:00;11.00;;;8.30;;
67272;SDS011;54190;49.770;9.250;2022-09-30T09:26:33;11.63;;;8.30;;
67272;SDS011;54190;49.770;9.250;2022-09-30T09:32:12;49.00;;;25.80;;
67272;SDS011;54190;49.770;9.250;2022-09-30T09:34:41;14.83;;;11.37;;
67272;SDS011;54190;49.770;9.250;2022-09-30T09:40:11;12.33;;;8.40;;
67272;SDS011;54190;49.770;9.250;2022-09-30T09:48:46;7.90;;;5.37;;
67272;SDS011;54190;49.770;9.250;2022-09-30T09:53:51;8.50;;;6.10;;
67272;SDS011;54190;49.770;9.250;2022-09-30T09:56:25;6.10;;;3.97;;
67272;SDS011;54190;49.770;9.250;2022-09-30T09:59:02;6.60;;;3.63;;
67272;SDS011;54190;49.770;9.250;2022-09-30T10:01:38;4.93;;;3.37;;
67272;SDS011;54190;49.770;9.250;2022-09-30T10:04:29;5.37;;;3.50;;
67272;SDS011;54190;49.770;9.250;2022-09-30T10:07:00;9.77;;;3.90;;
67272;SDS011;54190;49.770;9.250;2022-09-30T10:09:37;5.60;;;3.63;;
67272;SDS011;54190;49.770;9.250;2022-09-30T10:14:30;6.60;;;3.30;;
67272;SDS011;54190;49.770;9.250;2022-09-30T10:17:20;7.13;;;3.00;;
67272;SDS011;54190;49.770;9.250;2022-09-30T10:19:56;6.73;;;3.00;;
67272;SDS011;54190;49.770;9.250;2022-09-30T10:22:43;5.70;;;2.70;;
67272;SDS011;54190;49.770;9.250;2022-09-30T10:27:49;3.90;;;2.80;;
67272;SDS011;54190;49.770;9.250;2022-09-30T10:30:30;5.07;;;2.60;;
67272;SDS011;54190;49.770;9.250;2022-09-30T10:33:02;5.40;;;2.70;;
67272;SDS011;54190;49.770;9.250;2022-09-30T10:35:35;6.57;;;2.87;;
67272;SDS011;54190;49.770;9.250;2022-09-30T10:38:27;5.53;;;2.80;;
67272;SDS011;54190;49.770;9.250;2022-09-30T10:40:56;3.57;;;2.50;;
67272;SDS011;54190;49.770;9.250;2022-09-30T10:43:27;4.17;;;2.70;;
67272;SDS011;54190;49.770;9.250;2022-09-30T10:45:56;5.23;;;3.00;;
67272;SDS011;54190;49.770;9.250;2022-09-30T10:48:27;4.70;;;3.33;;
67272;SDS011;54190;49.770;9.250;2022-09-30T10:50:57;7.70;;;2.90;;
67272;SDS011;54190;49.770;9.250;2022-09-30T10:53:26;5.20;;;2.97;;
67272;SDS011;54190;49.770;9.250;2022-09-30T10:55:56;4.57;;;3.07;;
67272;SDS011;54190;49.770;9.250;2022-09-30T10:58:39;5.37;;;3.00;;
67272;SDS011;54190;49.770;9.250;2022-09-30T11:06:42;6.30;;;3.30;;
67272;SDS011;54190;49.770;9.250;2022-09-30T11:09:16;5.67;;;2.80;;
67272;SDS011;54190;49.770;9.250;2022-09-30T11:11:59;9.83;;;3.60;;
67272;SDS011;54190;49.770;9.250;2022-09-30T11:17:40;4.70;;;2.90;;
67272;SDS011;54190;49.770;9.250;2022-09-30T11:20:13;3.63;;;2.43;;
67272;SDS011;54190;49.770;9.250;2022-09-30T11:30:53;4.23;;;2.60;;
67272;SDS011;54190;49.770;9.250;2022-09-30T11:34:43;3.90;;;2.57;;
67272;SDS011;54190;49.770;9.250;2022-09-30T11:40:19;5.13;;;2.90;;
67272;SDS011;54190;49.770;9.250;2022-09-30T11:43:05;4.53;;;2.90;;
67272;SDS011;54190;49.770;9.250;2022-09-30T11:51:17;5.10;;;2.80;;
67272;SDS011;54190;49.770;9.250;2022-09-30T11:56:40;3.90;;;2.33;;
67272;SDS011;54190;49.770;9.250;2022-09-30T11:59:19;3.80;;;2.53;;
67272;SDS011;54190;49.770;9.250;2022-09-30T12:02:01;4.00;;;2.47;;
67272;SDS011;54190;49.770;9.250;2022-09-30T12:04:42;3.77;;;2.23;;
67272;SDS011;54190;49.770;9.250;2022-09-30T12:07:11;3.40;;;2.30;;
67272;SDS011;54190;49.770;9.250;2022-09-30T12:09:45;3.03;;;2.17;;
67272;SDS011;54190;49.770;9.250;2022-09-30T12:12:17;4.77;;;2.17;;
67272;SDS011;54190;49.770;9.250;2022-09-30T12:14:44;6.70;;;2.70;;
67272;SDS011;54190;49.770;9.250;2022-09-30T12:17:25;5.70;;;2.90;;
67272;SDS011;54190;49.770;9.250;2022-09-30T12:25:46;5.57;;;2.13;;
67272;SDS011;54190;49.770;9.250;2022-09-30T12:28:22;6.53;;;2.33;;
67272;SDS011;54190;49.770;9.250;2022-09-30T12:31:28;4.53;;;2.30;;
67272;SDS011;54190;49.770;9.250;2022-09-30T12:45:23;4.00;;;2.23;;
67272;SDS011;54190;49.770;9.250;2022-09-30T12:48:07;7.27;;;2.50;;
67272;SDS011;54190;49.770;9.250;2022-09-30T12:50:41;4.67;;;2.60;;
67272;SDS011;54190;49.770;9.250;2022-09-30T12:55:50;5.50;;;2.67;;
67272;SDS011;54190;49.770;9.250;2022-09-30T12:58:21;3.40;;;2.13;;
67272;SDS011;54190;49.770;9.250;2022-09-30T13:01:00;6.70;;;2.40;;
67272;SDS011;54190;49.770;9.250;2022-09-30T13:04:28;5.07;;;2.60;;
67272;SDS011;54190;49.770;9.250;2022-09-30T13:11:42;5.80;;;2.77;;
67272;SDS011;54190;49.770;9.250;2022-09-30T13:19:33;4.33;;;2.40;;
67272;SDS011;54190;49.770;9.250;2022-09-30T13:27:36;4.50;;;2.63;;
67272;SDS011;54190;49.770;9.250;2022-09-30T13:30:34;6.70;;;2.70;;
67272;SDS011;54190;49.770;9.250;2022-09-30T13:35:33;4.43;;;2.93;;
67272;SDS011;54190;49.770;9.250;2022-09-30T13:48:50;5.73;;;2.93;;
67272;SDS011;54190;49.770;9.250;2022-09-30T13:51:20;7.10;;;2.87;;
67272;SDS011;54190;49.770;9.250;2022-09-30T13:53:49;5.50;;;3.10;;
67272;SDS011;54190;49.770;9.250;2022-09-30T13:56:18;4.60;;;2.77;;
67272;SDS011;54190;49.770;9.250;2022-09-30T14:02:09;5.47;;;2.93;;
67272;SDS011;54190;49.770;9.250;2022-09-30T14:11:14;6.40;;;2.87;;
67272;SDS011;54190;49.770;9.250;2022-09-30T14:16:47;6.10;;;2.77;;
67272;SDS011;54190;49.770;9.250;2022-09-30T14:22:08;4.03;;;2.03;;
67272;SDS011;54190;49.770;9.250;2022-09-30T14:24:36;4.03;;;2.37;;
67272;SDS011;54190;49.770;9.250;2022-09-30T14:32:21;3.50;;;2.37;;
67272;SDS011;54190;49.770;9.250;2022-09-30T14:35:10;3.93;;;2.43;;
67272;SDS011;54190;49.770;9.250;2022-09-30T14:37:44;3.43;;;2.20;;
67272;SDS011;54190;49.770;9.250;2022-09-30T14:40:37;3.97;;;2.40;;
67272;SDS011;54190;49.770;9.250;2022-09-30T14:43:05;4.07;;;2.20;;
67272;SDS011;54190;49.770;9.250;2022-09-30T14:45:37;3.60;;;2.60;;
67272;SDS011;54190;49.770;9.250;2022-09-30T14:48:08;6.17;;;2.40;;
67272;SDS011;54190;49.770;9.250;2022-09-30T14:50:45;6.47;;;2.40;;
67272;SDS011;54190;49.770;9.250;2022-09-30T14:53:25;5.03;;;2.60;;
67272;SDS011;54190;49.770;9.250;2022-09-30T14:55:59;3.50;;;2.50;;
67272;SDS011;54190;49.770;9.250;2022-09-30T14:58:30;3.77;;;2.60;;
67272;SDS011;54190;49.770;9.250;2022-09-30T15:03:46;4.90;;;2.50;;
67272;SDS011;54190;49.770;9.250;2022-09-30T15:06:16;4.13;;;2.70;;
67272;SDS011;54190;49.770;9.250;2022-09-30T15:08:42;5.77;;;3.77;;
67272;SDS011;54190;49.770;9.250;2022-09-30T15:11:09;6.40;;;3.30;;
67272;SDS011;54190;49.770;9.250;2022-09-30T15:13:46;4.77;;;2.33;;
67272;SDS011;54190;49.770;9.250;2022-09-30T15:16:23;3.53;;;2.60;;
67272;SDS011;54190;49.770;9.250;2022-09-30T15:18:50;5.93;;;2.40;;
67272;SDS011;54190;49.770;9.250;2022-09-30T15:21:18;3.90;;;3.00;;
67272;SDS011;54190;49.770;9.250;2022-09-30T15:23:47;4.40;;;2.90;;
67272;SDS011;54190;49.770;9.250;2022-09-30T15:26:22;4.20;;;2.70;;
67272;SDS011;54190;49.770;9.250;2022-09-30T15:28:49;4.40;;;2.53;;
67272;SDS011;54190;49.770;9.250;2022-09-30T15:31:27;4.13;;;2.30;;
67272;SDS011;54190;49.770;9.250;2022-09-30T15:34:05;4.07;;;2.80;;
67272;SDS011;54190;49.770;9.250;2022-09-30T15:36:36;5.40;;;3.10;;
67272;SDS011;54190;49.770;9.250;2022-09-30T15:39:03;5.00;;;3.40;;
67272;SDS011;54190;49.770;9.250;2022-09-30T15:41:37;6.60;;;3.07;;
67272;SDS011;54190;49.770;9.250;2022-09-30T15:44:06;6.30;;;3.00;;
67272;SDS011;54190;49.770;9.250;2022-09-30T15:46:59;4.27;;;2.83;;
67272;SDS011;54190;49.770;9.250;2022-09-30T15:49:52;2.77;;;2.00;;
67272;SDS011;54190;49.770;9.250;2022-09-30T15:52:28;4.10;;;2.60;;
67272;SDS011;54190;49.770;9.250;2022-09-30T15:55:29;6.13;;;2.70;;
67272;SDS011;54190;49.770;9.250;2022-09-30T15:57:56;4.30;;;2.70;;
67272;SDS011;54190;49.770;9.250;2022-09-30T16:00:30;4.80;;;2.40;;
67272;SDS011;54190;49.770;9.250;2022-09-30T16:05:41;5.10;;;2.10;;
67272;SDS011;54190;49.770;9.250;2022-09-30T16:08:07;4.40;;;2.10;;
67272;SDS011;54190;49.770;9.250;2022-09-30T16:10:34;4.40;;;2.00;;
67272;SDS011;54190;49.770;9.250;2022-09-30T16:13:02;5.80;;;2.70;;
67272;SDS011;54190;49.770;9.250;2022-09-30T16:15:30;6.23;;;3.13;;
67272;SDS011;54190;49.770;9.250;2022-09-30T16:18:13;3.70;;;2.70;;
67272;SDS011;54190;49.770;9.250;2022-09-30T16:20:55;5.17;;;2.37;;
67272;SDS011;54190;49.770;9.250;2022-09-30T16:23:26;3.63;;;2.20;;
67272;SDS011;54190;49.770;9.250;2022-09-30T16:28:43;4.67;;;2.40;;
67272;SDS011;54190;49.770;9.250;2022-09-30T16:31:09;4.37;;;2.47;;
67272;SDS011;54190;49.770;9.250;2022-09-30T16:33:36;9.30;;;2.70;;
67272;SDS011;54190;49.770;9.250;2022-09-30T16:36:06;3.20;;;2.30;;
67272;SDS011;54190;49.770;9.250;2022-09-30T16:39:35;3.60;;;2.70;;
67272;SDS011;54190;49.770;9.250;2022-09-30T16:42:01;5.43;;;3.00;;
67272;SDS011;54190;49.770;9.250;2022-09-30T16:44:28;6.20;;;2.97;;
67272;SDS011;54190;49.770;9.250;2022-09-30T16:47:02;6.90;;;3.63;;
67272;SDS011;54190;49.770;9.250;2022-09-30T16:49:28;4.87;;;3.23;;
67272;SDS011;54190;49.770;9.250;2022-09-30T16:51:54;5.20;;;2.90;;
67272;SDS011;54190;49.770;9.250;2022-09-30T16:54:20;4.83;;;3.33;;
67272;SDS011;54190;49.770;9.250;2022-09-30T16:56:46;4.27;;;3.23;;
67272;SDS011;54190;49.770;9.250;2022-09-30T16:59:13;5.20;;;2.97;;
67272;SDS011;54190;49.770;9.250;2022-09-30T17:01:41;4.93;;;3.10;;
67272;SDS011;54190;49.770;9.250;2022-09-30T17:04:29;4.10;;;2.60;;
67272;SDS011;54190;49.770;9.250;2022-09-30T17:06:57;4.40;;;3.30;;
67272;SDS011;54190;49.770;9.250;2022-09-30T17:09:23;4.30;;;3.00;;
67272;SDS011;54190;49.770;9.250;2022-09-30T17:11:49;5.93;;;3.03;;
67272;SDS011;54190;49.770;9.250;2022-09-30T17:14:15;5.93;;;3.70;;
67272;SDS011;54190;49.770;9.250;2022-09-30T17:16:41;7.83;;;3.30;;
67272;SDS011;54190;49.770;9.250;2022-09-30T17:19:07;4.93;;;3.20;;
67272;SDS011;54190;49.770;9.250;2022-09-30T17:21:33;8.10;;;2.80;;
67272;SDS011;54190;49.770;9.250;2022-09-30T17:23:58;4.80;;;3.20;;
67272;SDS011;54190;49.770;9.250;2022-09-30T17:26:24;8.77;;;3.13;;
67272;SDS011;54190;49.770;9.250;2022-09-30T17:28:50;5.83;;;3.10;;
67272;SDS011;54190;49.770;9.250;2022-09-30T17:31:16;5.03;;;2.80;;
67272;SDS011;54190;49.770;9.250;2022-09-30T17:33:41;4.87;;;2.70;;
67272;SDS011;54190;49.770;9.250;2022-09-30T17:36:08;8.20;;;3.17;;
67272;SDS011;54190;49.770;9.250;2022-09-30T17:38:36;6.60;;;3.50;;
67272;SDS011;54190;49.770;9.250;2022-09-30T17:41:03;4.93;;;3.40;;
67272;SDS011;54190;49.770;9.250;2022-09-30T17:43:48;4.83;;;3.53;;
67272;SDS011;54190;49.770;9.250;2022-09-30T17:46:15;5.30;;;3.30;;
67272;SDS011;54190;49.770;9.250;2022-09-30T17:48:45;7.87;;;4.40;;
67272;SDS011;54190;49.770;9.250;2022-09-30T17:51:11;6.63;;;4.20;;
67272;SDS011;54190;49.770;9.250;2022-09-30T17:53:38;7.27;;;4.60;;
67272;SDS011;54190;49.770;9.250;2022-09-30T17:56:05;10.40;;;4.70;;
67272;SDS011;54190;49.770;9.250;2022-09-30T17:58:37;7.07;;;3.77;;
67272;SDS011;54190;49.770;9.250;2022-09-30T18:01:05;7.50;;;4.13;;
67272;SDS011;54190;49.770;9.250;2022-09-30T18:03:34;7.17;;;4.27;;
67272;SDS011;54190;49.770;9.250;2022-09-30T18:06:01;7.83;;;4.17;;
67272;SDS011;54190;49.770;9.250;2022-09-30T18:08:27;6.03;;;3.10;;
67272;SDS011;54190;49.770;9.250;2022-09-30T18:10:53;8.37;;;3.00;;
67272;SDS011;54190;49.770;9.250;2022-09-30T18:13:22;5.40;;;3.27;;
67272;SDS011;54190;49.770;9.250;2022-09-30T18:15:48;5.50;;;2.80;;
67272;SDS011;54190;49.770;9.250;2022-09-30T18:18:14;3.50;;;2.53;;
67272;SDS011;54190;49.770;9.250;2022-09-30T18:20:44;4.30;;;2.80;;
67272;SDS011;54190;49.770;9.250;2022-09-30T18:23:11;8.13;;;2.77;;
67272;SDS011;54190;49.770;9.250;2022-09-30T18:25:37;4.43;;;3.07;;
67272;SDS011;54190;49.770;9.250;2022-09-30T18:28:06;4.40;;;2.83;;
67272;SDS011;54190;49.770;9.250;2022-09-30T18:30:35;3.93;;;3.10;;